createdAt,value
2022-09-21T00:00:44.719Z,6.32
2022-09-21T00:02:47.340Z,6.53
2022-09-21T00:04:50.965Z,5.97
2022-09-21T00:06:53.584Z,6.18
2022-09-21T00:08:58.011Z,6.00
2022-09-21T00:11:00.886Z,5.20
2022-09-21T00:13:05.147Z,5.57
2022-09-21T00:15:10.170Z,6.30
2022-09-21T00:17:12.788Z,6.00
2022-09-21T00:19:16.812Z,5.53
2022-09-21T00:21:19.563Z,6.10
2022-09-21T00:23:23.727Z,5.40
2022-09-21T00:25:27.856Z,5.97
2022-09-21T00:27:31.132Z,6.13
2022-09-21T00:29:33.894Z,5.75
2022-09-21T00:31:36.513Z,5.78
2022-09-21T00:33:39.749Z,6.05
2022-09-21T00:35:42.338Z,6.80
2022-09-21T00:37:44.901Z,6.95
2022-09-21T00:39:47.686Z,6.25
2022-09-21T00:41:53.538Z,7.18
2022-09-21T00:44:24.402Z,5.90
2022-09-21T00:46:30.911Z,6.72
2022-09-21T00:48:34.522Z,7.05
2022-09-21T00:50:43.676Z,6.18
2022-09-21T00:52:50.037Z,6.80
2022-09-21T00:54:55.572Z,5.95
2022-09-21T00:57:01.669Z,5.45
2022-09-21T00:59:05.405Z,5.32
2022-09-21T01:01:08.247Z,5.10
2022-09-21T01:03:12.956Z,5.55
2022-09-21T01:05:15.531Z,5.78
2022-09-21T01:07:20.804Z,5.93
2022-09-21T01:09:23.871Z,5.72
2022-09-21T01:11:35.327Z,6.70
2022-09-21T01:13:48.110Z,5.40
2022-09-21T01:15:58.746Z,5.60
2022-09-21T01:18:11.348Z,6.15
2022-09-21T01:20:55.047Z,5.93
2022-09-21T01:23:23.443Z,5.53
2022-09-21T01:25:35.977Z,5.65
2022-09-21T01:27:58.544Z,6.50
2022-09-21T01:30:05.549Z,6.70
2022-09-21T01:32:12.611Z,6.18
2022-09-21T01:34:21.032Z,6.57
2022-09-21T01:36:28.195Z,7.00
2022-09-21T01:38:37.236Z,7.53
2022-09-21T01:40:43.206Z,6.57
2022-09-21T01:42:49.343Z,7.00
2022-09-21T01:44:52.046Z,6.53
2022-09-21T01:46:58.318Z,7.00
2022-09-21T01:49:07.156Z,5.95
2022-09-21T01:51:12.644Z,6.70
2022-09-21T01:53:21.823Z,6.88
2022-09-21T01:55:28.715Z,6.22
2022-09-21T02:01:47.606Z,6.45
2022-09-21T02:03:55.334Z,6.00
2022-09-21T02:05:59.369Z,6.13
2022-09-21T02:08:02.524Z,6.90
2022-09-21T02:10:08.433Z,6.28
2022-09-21T02:12:11.802Z,6.88
2022-09-21T02:14:18.343Z,7.55
2022-09-21T02:16:34.922Z,6.57
2022-09-21T02:18:48.596Z,6.75
2022-09-21T02:20:58.602Z,6.97
2022-09-21T02:23:09.863Z,6.88
2022-09-21T02:25:16.595Z,7.00
2022-09-21T02:27:30.188Z,7.40
2022-09-21T02:29:42.484Z,7.90
2022-09-21T02:31:49.931Z,7.22
2022-09-21T02:34:00.137Z,8.15
2022-09-21T02:36:11.179Z,6.97
2022-09-21T02:38:22.651Z,6.80
2022-09-21T02:40:30.341Z,7.65
2022-09-21T02:42:39.142Z,7.18
2022-09-21T02:44:47.323Z,7.30
2022-09-21T02:46:54.997Z,7.28
2022-09-21T02:49:01.763Z,8.18
2022-09-21T02:51:11.137Z,7.93
2022-09-21T02:53:17.924Z,7.88
2022-09-21T02:55:20.519Z,8.77
2022-09-21T02:57:24.555Z,7.57
2022-09-21T02:59:28.175Z,8.60
2022-09-21T03:01:32.821Z,8.88
2022-09-21T03:03:35.739Z,8.30
2022-09-21T03:05:38.312Z,8.18
2022-09-21T03:07:42.880Z,8.55
2022-09-21T03:09:45.736Z,9.20
2022-09-21T03:11:48.907Z,8.70
2022-09-21T03:13:51.475Z,9.82
2022-09-21T03:16:00.863Z,9.65
2022-09-21T03:18:04.957Z,9.13
2022-09-21T03:20:08.320Z,9.57
2022-09-21T03:22:10.963Z,10.40
2022-09-21T03:24:34.855Z,9.27
2022-09-21T03:26:37.599Z,15.15
2022-09-21T03:28:40.544Z,18.00
2022-09-21T03:30:43.525Z,20.70
2022-09-21T03:32:46.150Z,18.38
2022-09-21T03:34:48.742Z,17.23
2022-09-21T03:36:51.352Z,13.98
2022-09-21T03:38:54.183Z,14.23
2022-09-21T03:40:58.226Z,14.30
2022-09-21T03:43:01.118Z,10.25
2022-09-21T03:45:03.728Z,11.10
2022-09-21T03:47:07.475Z,10.30
2022-09-21T03:49:10.039Z,10.60
2022-09-21T03:51:12.653Z,11.13
2022-09-21T03:53:15.972Z,10.38
2022-09-21T03:55:18.691Z,10.50
2022-09-21T03:57:22.728Z,11.73
2022-09-21T03:59:25.415Z,10.95
2022-09-21T04:01:28.053Z,10.75
2022-09-21T04:03:31.055Z,10.55
2022-09-21T04:05:33.766Z,10.57
2022-09-21T04:07:36.767Z,10.82
2022-09-21T04:09:39.373Z,10.60
2022-09-21T04:11:41.959Z,10.35
2022-09-21T04:13:51.171Z,10.85
2022-09-21T04:15:53.748Z,12.27
2022-09-21T04:17:56.569Z,9.68
2022-09-21T04:19:59.163Z,8.50
2022-09-21T04:22:01.742Z,8.77
2022-09-21T04:24:05.115Z,9.30
2022-09-21T04:26:07.678Z,9.05
2022-09-21T04:28:10.258Z,7.68
2022-09-21T04:30:16.212Z,7.63
2022-09-21T04:32:19.225Z,7.75
2022-09-21T04:34:22.047Z,8.50
2022-09-21T04:36:26.568Z,7.68
2022-09-21T04:38:29.136Z,7.68
2022-09-21T04:40:32.029Z,8.90
2022-09-21T04:42:34.676Z,8.02
2022-09-21T04:44:37.559Z,8.23
2022-09-21T04:46:42.374Z,8.20
2022-09-21T04:48:46.160Z,8.32
2022-09-21T04:50:50.037Z,7.93
2022-09-21T04:52:52.623Z,9.32
2022-09-21T04:54:56.403Z,9.10
2022-09-21T04:56:59.042Z,9.90
2022-09-21T04:59:01.656Z,10.98
2022-09-21T05:01:06.199Z,9.85
2022-09-21T05:03:10.348Z,9.15
2022-09-21T05:05:13.287Z,8.35
2022-09-21T05:07:15.860Z,9.73
2022-09-21T05:09:36.174Z,10.40
2022-09-21T05:11:38.983Z,10.55
2022-09-21T05:13:41.690Z,9.45
2022-09-21T05:15:44.296Z,11.20
2022-09-21T05:17:47.000Z,10.77
2022-09-21T05:19:51.395Z,12.75
2022-09-21T05:21:54.005Z,13.50
2022-09-21T05:23:57.357Z,13.02
2022-09-21T05:26:01.118Z,13.35
2022-09-21T05:28:04.355Z,13.02
2022-09-21T05:30:08.460Z,11.93
2022-09-21T05:32:18.196Z,12.88
2022-09-21T05:34:34.324Z,11.05
2022-09-21T05:36:48.774Z,9.27
2022-09-21T05:38:52.002Z,9.98
2022-09-21T05:40:55.195Z,10.45
2022-09-21T05:42:58.349Z,8.80
2022-09-21T05:45:01.432Z,9.00
2022-09-21T05:47:14.068Z,7.30
2022-09-21T05:49:21.508Z,7.90
2022-09-21T05:51:34.387Z,7.53
2022-09-21T05:53:51.609Z,6.95
2022-09-21T05:55:58.054Z,7.47
2022-09-21T05:58:09.964Z,7.43
2022-09-21T06:00:18.828Z,6.97
2022-09-21T06:02:32.960Z,7.05
2022-09-21T06:04:36.238Z,7.43
2022-09-21T06:06:38.880Z,6.82
2022-09-21T06:08:42.858Z,6.40
2022-09-21T06:10:45.591Z,6.65
2022-09-21T06:12:48.231Z,6.68
2022-09-21T06:14:50.848Z,6.40
2022-09-21T06:16:54.191Z,6.07
2022-09-21T06:18:56.875Z,6.55
2022-09-21T06:20:59.523Z,6.10
2022-09-21T06:23:02.568Z,6.88
2022-09-21T06:25:07.817Z,5.70
2022-09-21T06:27:10.448Z,6.03
2022-09-21T06:29:13.056Z,5.93
2022-09-21T06:31:15.615Z,5.20
2022-09-21T06:33:21.139Z,5.53
2022-09-21T06:35:23.764Z,5.75
2022-09-21T06:37:26.368Z,5.85
2022-09-21T06:39:28.973Z,6.05
2022-09-21T06:41:34.425Z,6.28
2022-09-21T06:43:37.202Z,6.68
2022-09-21T06:45:40.023Z,6.75
2022-09-21T06:47:47.820Z,7.05
2022-09-21T06:49:50.417Z,6.97
2022-09-21T06:51:53.042Z,6.90
2022-09-21T06:53:56.953Z,7.03
2022-09-21T06:56:03.770Z,11.20
2022-09-21T07:00:13.034Z,7.25
2022-09-21T07:02:15.996Z,6.68
2022-09-21T07:04:21.974Z,5.88
2022-09-21T07:06:29.334Z,5.22
2022-09-21T07:10:58.396Z,5.35
2022-09-21T07:13:03.981Z,4.90
2022-09-21T07:15:10.244Z,5.13
2022-09-21T07:17:15.713Z,4.80
2022-09-21T07:19:19.119Z,4.95
2022-09-21T07:21:22.202Z,4.47
2022-09-21T07:23:24.857Z,4.53
2022-09-21T07:25:27.525Z,4.75
2022-09-21T07:27:31.450Z,5.03
2022-09-21T07:29:34.130Z,4.22
2022-09-21T07:31:38.548Z,4.15
2022-09-21T07:33:42.317Z,4.32
2022-09-21T07:35:52.069Z,3.95
2022-09-21T07:37:56.447Z,4.03
2022-09-21T07:39:59.143Z,3.88
2022-09-21T07:42:01.960Z,3.75
2022-09-21T07:44:04.889Z,3.70
2022-09-21T07:46:08.012Z,3.63
2022-09-21T07:48:12.011Z,3.78
2022-09-21T07:50:14.696Z,3.25
2022-09-21T07:52:18.360Z,3.78
2022-09-21T07:54:21.022Z,3.30
2022-09-21T07:56:24.602Z,3.40
2022-09-21T07:58:44.877Z,2.78
2022-09-21T08:00:47.582Z,3.28
2022-09-21T08:02:50.326Z,3.00
2022-09-21T08:04:54.837Z,3.10
2022-09-21T08:06:57.430Z,2.42
2022-09-21T08:09:00.241Z,2.60
2022-09-21T08:11:07.334Z,2.40
2022-09-21T08:13:09.953Z,2.40
2022-09-21T08:15:37.062Z,2.50
2022-09-21T08:17:39.382Z,2.30
2022-09-21T08:19:42.011Z,2.15
2022-09-21T08:21:47.035Z,2.40
2022-09-21T08:23:50.158Z,2.40
2022-09-21T08:25:53.196Z,2.30
2022-09-21T08:28:00.462Z,2.15
2022-09-21T08:30:03.623Z,1.98
2022-09-21T08:32:06.694Z,1.70
2022-09-21T08:34:09.367Z,1.80
2022-09-21T08:36:12.153Z,1.60
2022-09-21T08:38:16.241Z,1.50
2022-09-21T08:40:20.375Z,1.23
2022-09-21T08:42:45.486Z,1.10
2022-09-21T08:44:55.208Z,1.27
2022-09-21T08:47:06.032Z,1.08
2022-09-21T08:49:14.320Z,1.30
2022-09-21T08:51:23.179Z,1.25
2022-09-21T08:53:33.459Z,1.13
2022-09-21T08:55:36.139Z,0.98
2022-09-21T08:57:38.784Z,0.98
2022-09-21T08:59:44.141Z,1.00
2022-09-21T09:01:58.356Z,1.00
2022-09-21T09:04:16.151Z,1.00
2022-09-21T09:06:28.380Z,1.10
2022-09-21T09:09:05.460Z,1.20
2022-09-21T09:11:21.024Z,1.20
2022-09-21T09:13:52.600Z,1.15
2022-09-21T09:16:07.109Z,1.63
2022-09-21T09:18:16.663Z,1.02
2022-09-21T09:20:22.811Z,1.20
2022-09-21T09:22:30.932Z,1.30
2022-09-21T09:24:42.713Z,1.20
2022-09-21T09:26:49.981Z,0.93
2022-09-21T09:28:56.355Z,1.30
2022-09-21T09:31:02.425Z,1.10
2022-09-21T09:33:12.748Z,1.25
2022-09-21T09:35:23.786Z,1.30
2022-09-21T09:37:33.117Z,1.00
2022-09-21T09:39:37.324Z,1.25
2022-09-21T09:41:52.599Z,1.20
2022-09-21T09:44:08.947Z,1.10
2022-09-21T09:46:19.184Z,1.20
2022-09-21T09:48:41.219Z,1.10
2022-09-21T09:50:44.128Z,1.20
2022-09-21T09:52:47.954Z,1.30
2022-09-21T09:54:51.881Z,1.30
2022-09-21T09:56:55.269Z,1.20
2022-09-21T09:59:00.164Z,1.55
2022-09-21T10:01:02.726Z,1.60
2022-09-21T10:03:18.001Z,1.50
2022-09-21T10:05:24.205Z,1.50
2022-09-21T10:07:38.704Z,1.50
2022-09-21T10:09:41.491Z,1.67
2022-09-21T10:11:45.492Z,1.30
2022-09-21T10:13:50.296Z,1.40
2022-09-21T10:15:56.959Z,1.52
2022-09-21T10:18:05.440Z,1.30
2022-09-21T10:20:17.088Z,1.40
2022-09-21T10:22:21.588Z,2.25
2022-09-21T10:24:26.554Z,1.70
2022-09-21T10:26:33.433Z,2.25
2022-09-21T10:28:38.128Z,1.67
2022-09-21T10:30:41.321Z,1.50
2022-09-21T10:32:56.723Z,1.27
2022-09-21T10:35:14.863Z,1.50
2022-09-21T10:37:28.145Z,1.48
2022-09-21T10:39:31.805Z,1.45
2022-09-21T10:41:34.529Z,1.60
2022-09-21T10:43:44.481Z,1.20
2022-09-21T10:45:54.906Z,1.27
2022-09-21T10:47:59.841Z,1.20
2022-09-21T10:50:05.250Z,1.20
2022-09-21T10:52:08.344Z,1.15
2022-09-21T10:54:11.226Z,1.00
2022-09-21T10:56:19.684Z,0.90
2022-09-21T10:58:22.417Z,0.90
2022-09-21T11:00:35.903Z,1.10
2022-09-21T11:02:39.476Z,0.70
2022-09-21T11:04:47.131Z,0.90
2022-09-21T11:06:53.638Z,0.90
2022-09-21T11:09:00.367Z,0.80
2022-09-21T11:11:14.866Z,0.75
2022-09-21T11:13:26.195Z,0.77
2022-09-21T11:15:43.257Z,0.70
2022-09-21T11:17:53.445Z,0.85
2022-09-21T11:20:05.115Z,0.90
2022-09-21T11:22:13.922Z,0.80
2022-09-21T11:24:24.406Z,0.90
2022-09-21T11:26:33.786Z,1.10
2022-09-21T11:28:41.713Z,1.00
2022-09-21T11:31:00.093Z,1.05
2022-09-21T11:35:36.572Z,1.10
2022-09-21T11:38:05.223Z,0.90
2022-09-21T11:40:22.464Z,0.73
2022-09-21T11:42:41.846Z,0.88
2022-09-21T11:44:52.991Z,0.70
2022-09-21T11:47:03.483Z,0.70
2022-09-21T11:49:22.456Z,0.90
2022-09-21T11:51:38.620Z,0.90
2022-09-21T11:53:57.460Z,0.80
2022-09-21T11:56:25.164Z,0.90
2022-09-21T11:58:34.360Z,0.90
2022-09-21T12:00:48.193Z,0.70
2022-09-21T12:03:23.755Z,0.77
2022-09-21T12:05:33.925Z,1.15
2022-09-21T12:07:50.319Z,0.57
2022-09-21T12:10:11.614Z,0.60
2022-09-21T12:12:19.121Z,0.80
2022-09-21T12:14:29.418Z,0.70
2022-09-21T12:16:40.088Z,0.80
2022-09-21T12:18:52.312Z,0.80
2022-09-21T12:21:02.476Z,0.60
2022-09-21T12:23:11.702Z,0.90
2022-09-21T12:25:18.309Z,0.70
2022-09-21T12:27:27.912Z,0.80
2022-09-21T12:29:38.049Z,0.80
2022-09-21T12:31:48.214Z,0.70
2022-09-21T12:33:57.958Z,0.80
2022-09-21T12:36:08.709Z,0.70
2022-09-21T12:38:16.386Z,0.70
2022-09-21T12:40:27.737Z,0.80
2022-09-21T12:42:37.348Z,0.68
2022-09-21T12:44:52.890Z,0.70
2022-09-21T12:47:09.153Z,0.70
2022-09-21T12:49:25.171Z,0.70
2022-09-21T12:51:34.501Z,0.70
2022-09-21T12:53:40.080Z,0.70
2022-09-21T12:55:50.147Z,0.50
2022-09-21T12:58:14.532Z,0.70
2022-09-21T13:00:20.535Z,0.68
2022-09-21T13:02:33.264Z,0.60
2022-09-21T13:04:46.894Z,0.68
2022-09-21T13:07:09.245Z,0.60
2022-09-21T13:09:14.995Z,0.73
2022-09-21T13:11:21.343Z,0.68
2022-09-21T13:13:29.234Z,0.70
2022-09-21T13:15:34.122Z,0.82
2022-09-21T13:17:36.900Z,0.52
2022-09-21T13:19:41.418Z,0.50
2022-09-21T13:21:44.428Z,0.63
2022-09-21T13:23:56.036Z,0.73
2022-09-21T13:26:05.318Z,0.70
2022-09-21T13:28:20.068Z,0.63
2022-09-21T13:30:32.465Z,0.60
2022-09-21T13:35:33.982Z,0.45
2022-09-21T13:37:36.599Z,0.47
2022-09-21T13:39:44.580Z,0.60
2022-09-21T13:42:03.993Z,0.65
2022-09-21T13:44:21.020Z,0.50
2022-09-21T13:46:55.772Z,0.82
2022-09-21T13:48:58.734Z,0.70
2022-09-21T13:51:09.997Z,0.60
2022-09-21T13:53:20.970Z,0.60
2022-09-21T13:55:30.461Z,0.60
2022-09-21T13:57:39.071Z,0.63
2022-09-21T13:59:43.639Z,0.73
2022-09-21T14:01:47.678Z,0.70
2022-09-21T14:03:54.605Z,0.70
2022-09-21T14:08:18.431Z,0.70
2022-09-21T14:10:23.454Z,0.63
2022-09-21T14:12:29.536Z,0.80
2022-09-21T14:14:35.022Z,0.52
2022-09-21T14:16:55.696Z,0.63
2022-09-21T14:18:58.373Z,0.65
2022-09-21T14:21:16.992Z,0.70
2022-09-21T14:23:30.021Z,0.75
2022-09-21T14:26:01.893Z,0.85
2022-09-21T14:28:11.929Z,0.88
2022-09-21T14:30:20.696Z,0.77
2022-09-21T14:32:26.309Z,0.80
2022-09-21T14:34:35.786Z,0.80
2022-09-21T14:36:42.919Z,0.82
2022-09-21T14:38:53.537Z,0.80
2022-09-21T14:41:00.644Z,0.80
2022-09-21T14:43:09.665Z,0.63
2022-09-21T14:45:18.063Z,1.10
2022-09-21T14:47:34.182Z,0.60
2022-09-21T14:49:52.976Z,0.75
2022-09-21T14:52:12.903Z,0.70
2022-09-21T14:54:34.939Z,0.77
2022-09-21T14:57:01.095Z,0.80
2022-09-21T14:59:33.670Z,0.80
2022-09-21T15:01:38.619Z,0.90
2022-09-21T15:03:58.487Z,1.20
2022-09-21T15:06:30.916Z,0.75
2022-09-21T15:09:09.690Z,1.00
2022-09-21T15:11:21.711Z,0.80
2022-09-21T15:13:48.726Z,0.90
2022-09-21T15:16:07.104Z,0.70
2022-09-21T15:18:20.380Z,0.70
2022-09-21T15:20:24.297Z,0.70
2022-09-21T15:22:27.544Z,0.70
2022-09-21T15:24:32.595Z,0.80
2022-09-21T15:26:37.720Z,0.70
2022-09-21T15:29:08.497Z,0.77
2022-09-21T15:31:11.930Z,0.77
2022-09-21T15:33:14.884Z,0.85
2022-09-21T15:35:21.392Z,0.70
2022-09-21T15:37:24.014Z,0.90
2022-09-21T15:39:28.777Z,0.77
2022-09-21T15:41:44.811Z,0.65
2022-09-21T15:43:51.360Z,0.75
2022-09-21T15:45:58.036Z,0.70
2022-09-21T15:48:00.854Z,0.70
2022-09-21T15:50:03.986Z,0.60
2022-09-21T15:52:19.405Z,0.60
2022-09-21T15:54:33.669Z,0.80
2022-09-21T15:56:40.443Z,0.60
2022-09-21T15:58:45.830Z,0.90
2022-09-21T16:00:54.952Z,0.65
2022-09-21T16:03:05.221Z,0.95
2022-09-21T16:05:13.986Z,1.08
2022-09-21T16:07:26.787Z,0.85
2022-09-21T16:09:39.108Z,0.68
2022-09-21T16:11:42.460Z,0.80
2022-09-21T16:14:04.868Z,0.98
2022-09-21T16:16:09.696Z,0.90
2022-09-21T16:18:32.169Z,0.63
2022-09-21T16:20:47.360Z,0.90
2022-09-21T16:22:52.463Z,1.00
2022-09-21T16:24:56.923Z,0.90
2022-09-21T16:27:02.022Z,0.80
2022-09-21T16:29:23.424Z,0.80
2022-09-21T16:31:31.860Z,0.80
2022-09-21T16:33:44.014Z,0.63
2022-09-21T16:35:47.007Z,1.00
2022-09-21T16:37:50.051Z,0.70
2022-09-21T16:39:53.888Z,0.77
2022-09-21T16:41:59.949Z,0.63
2022-09-21T16:44:03.244Z,1.08
2022-09-21T16:46:08.154Z,0.70
2022-09-21T16:48:13.832Z,1.00
2022-09-21T16:50:20.334Z,0.70
2022-09-21T16:52:23.065Z,0.80
2022-09-21T16:54:27.135Z,1.02
2022-09-21T16:56:30.007Z,0.90
2022-09-21T16:58:32.748Z,1.00
2022-09-21T17:00:41.072Z,1.05
2022-09-21T17:02:45.268Z,1.38
2022-09-21T17:04:48.859Z,0.90
2022-09-21T17:06:52.318Z,1.13
2022-09-21T17:08:54.964Z,0.80
2022-09-21T17:10:57.909Z,0.88
2022-09-21T17:13:00.623Z,0.90
2022-09-21T17:15:04.143Z,0.90
2022-09-21T17:17:14.112Z,1.08
2022-09-21T17:19:19.331Z,0.95
2022-09-21T17:21:21.948Z,0.93
2022-09-21T17:23:29.074Z,1.20
2022-09-21T17:25:32.775Z,0.98
2022-09-21T17:27:36.706Z,0.70
2022-09-21T17:29:47.133Z,0.80
2022-09-21T17:31:53.523Z,1.30
2022-09-21T17:33:57.065Z,1.20
2022-09-21T17:36:02.271Z,0.93
2022-09-21T17:38:04.912Z,1.10
2022-09-21T17:40:11.157Z,1.10
2022-09-21T17:42:18.954Z,1.30
2022-09-21T17:44:46.398Z,1.20
2022-09-21T17:46:58.204Z,1.20
2022-09-21T17:49:01.275Z,1.10
2022-09-21T17:51:06.123Z,1.40
2022-09-21T17:53:28.213Z,1.23
2022-09-21T17:55:31.959Z,1.40
2022-09-21T17:57:44.813Z,1.33
2022-09-21T17:59:54.681Z,1.30
2022-09-21T18:02:00.034Z,1.48
2022-09-21T18:04:03.474Z,1.70
2022-09-21T18:06:09.059Z,1.52
2022-09-21T18:08:12.121Z,1.50
2022-09-21T18:10:15.831Z,1.88
2022-09-21T18:12:48.712Z,1.80
2022-09-21T18:14:57.051Z,1.92
2022-09-21T18:17:11.720Z,1.77
2022-09-21T18:19:30.967Z,1.90
2022-09-21T18:21:41.574Z,1.92
2022-09-21T18:23:54.101Z,2.42
2022-09-21T18:25:57.454Z,1.88
2022-09-21T18:28:12.115Z,2.22
2022-09-21T18:30:16.280Z,2.10
2022-09-21T18:32:53.636Z,1.92
2022-09-21T18:35:12.277Z,2.22
2022-09-21T18:37:23.372Z,2.03
2022-09-21T18:39:37.313Z,1.70
2022-09-21T18:41:45.679Z,2.28
2022-09-21T18:44:05.262Z,1.25
2022-09-21T18:46:14.751Z,1.83
2022-09-21T18:48:36.423Z,1.70
2022-09-21T18:50:44.339Z,1.58
2022-09-21T18:52:58.210Z,1.48
2022-09-21T18:55:02.049Z,1.10
2022-09-21T18:57:12.099Z,1.20
2022-09-21T18:59:15.741Z,1.20
2022-09-21T19:01:21.758Z,1.30
2022-09-21T19:03:25.261Z,1.30
2022-09-21T19:05:28.689Z,1.30
2022-09-21T19:07:40.075Z,1.30
2022-09-21T19:09:52.086Z,1.50
2022-09-21T19:12:03.277Z,1.38
2022-09-21T19:14:13.607Z,1.15
2022-09-21T19:16:25.039Z,1.17
2022-09-21T19:18:49.437Z,1.50
2022-09-21T19:21:02.156Z,1.42
2022-09-21T19:23:16.431Z,1.30
2022-09-21T19:25:31.001Z,1.10
2022-09-21T19:27:39.688Z,1.10
2022-09-21T19:29:50.960Z,1.23
2022-09-21T19:31:54.106Z,1.52
2022-09-21T19:33:56.965Z,1.30
2022-09-21T19:36:00.973Z,1.13
2022-09-21T19:38:04.882Z,2.33
2022-09-21T19:40:08.911Z,1.65
2022-09-21T19:42:29.263Z,1.60
2022-09-21T19:44:43.269Z,1.50
2022-09-21T19:46:52.012Z,1.40
2022-09-21T19:49:02.662Z,1.50
2022-09-21T19:51:05.811Z,1.33
2022-09-21T19:53:28.379Z,1.67
2022-09-21T19:55:49.145Z,1.40
2022-09-21T19:58:12.177Z,1.42
2022-09-21T20:00:17.580Z,1.23
2022-09-21T20:02:28.678Z,1.27
2022-09-21T20:04:36.570Z,1.20
2022-09-21T20:06:46.509Z,1.20
2022-09-21T20:08:56.435Z,1.33
2022-09-21T20:11:08.292Z,1.20
2022-09-21T20:13:24.793Z,1.10
2022-09-21T20:15:33.577Z,1.40
2022-09-21T20:17:43.432Z,1.38
2022-09-21T20:19:53.520Z,1.35
2022-09-21T20:22:04.463Z,1.30
2022-09-21T20:24:18.021Z,1.40
2022-09-21T20:26:25.048Z,1.48
2022-09-21T20:28:29.735Z,1.40
2022-09-21T20:30:35.598Z,1.40
2022-09-21T20:32:40.159Z,1.50
2022-09-21T20:34:42.767Z,1.30
2022-09-21T20:36:45.618Z,1.50
2022-09-21T20:38:48.834Z,1.10
2022-09-21T20:40:52.369Z,1.50
2022-09-21T20:42:55.557Z,1.73
2022-09-21T20:44:59.510Z,1.60
2022-09-21T20:47:02.135Z,1.30
2022-09-21T20:49:08.461Z,1.40
2022-09-21T20:51:11.294Z,1.40
2022-09-21T20:53:14.083Z,1.40
2022-09-21T20:55:20.143Z,1.60
2022-09-21T20:57:22.786Z,1.58
2022-09-21T20:59:27.104Z,1.33
2022-09-21T21:01:31.132Z,1.33
2022-09-21T21:03:34.255Z,1.58
2022-09-21T21:05:37.121Z,1.50
2022-09-21T21:07:42.361Z,1.80
2022-09-21T21:09:45.003Z,2.53
2022-09-21T21:11:47.591Z,2.38
2022-09-21T21:13:50.536Z,1.98
2022-09-21T21:15:53.814Z,2.08
2022-09-21T21:17:57.906Z,1.90
2022-09-21T21:20:00.467Z,2.13
2022-09-21T21:22:03.193Z,2.75
2022-09-21T21:24:24.199Z,2.20
2022-09-21T21:26:50.382Z,2.10
2022-09-21T21:28:52.596Z,2.17
2022-09-21T21:30:56.789Z,2.63
2022-09-21T21:33:01.719Z,2.95
2022-09-21T21:35:05.350Z,2.47
2022-09-21T21:37:09.053Z,2.47
2022-09-21T21:39:11.745Z,2.35
2022-09-21T21:41:14.835Z,2.33
2022-09-21T21:43:17.514Z,2.17
2022-09-21T21:45:21.563Z,2.50
2022-09-21T21:47:41.103Z,2.53
2022-09-21T21:49:45.366Z,2.10
2022-09-21T21:51:49.294Z,2.30
2022-09-21T21:53:52.086Z,2.40
2022-09-21T21:56:03.122Z,2.30
2022-09-21T21:58:05.837Z,3.00
2022-09-21T22:00:09.933Z,2.78
2022-09-21T22:02:12.978Z,2.72
2022-09-21T22:04:15.608Z,2.45
2022-09-21T22:06:19.977Z,2.38
2022-09-21T22:08:22.629Z,2.70
2022-09-21T22:10:25.644Z,2.20
2022-09-21T22:12:28.307Z,2.67
2022-09-21T22:14:31.149Z,2.60
2022-09-21T22:16:35.969Z,2.55
2022-09-21T22:18:39.792Z,2.35
2022-09-21T22:20:42.437Z,2.90
2022-09-21T22:22:46.404Z,2.50
2022-09-21T22:24:49.036Z,2.63
2022-09-21T22:26:51.748Z,2.50
2022-09-21T22:28:56.738Z,2.40
2022-09-21T22:31:00.033Z,1.98
2022-09-21T22:33:03.043Z,2.70
2022-09-21T22:35:06.539Z,2.40
2022-09-21T22:37:09.136Z,2.63
2022-09-21T22:39:13.610Z,2.90
2022-09-21T22:41:18.425Z,2.40
2022-09-21T22:43:21.032Z,2.30
2022-09-21T22:45:26.148Z,2.55
2022-09-21T22:47:28.759Z,2.45
2022-09-21T22:49:31.367Z,2.45
2022-09-21T22:51:34.516Z,2.40
2022-09-21T22:53:37.108Z,2.03
2022-09-21T22:55:41.179Z,2.20
2022-09-21T22:57:43.925Z,2.45
2022-09-21T22:59:46.532Z,1.90
2022-09-21T23:01:49.205Z,2.13
2022-09-21T23:03:53.725Z,1.98
2022-09-21T23:05:57.348Z,1.80
2022-09-21T23:08:00.022Z,1.55
2022-09-21T23:10:02.697Z,1.90
2022-09-21T23:12:07.203Z,1.90
2022-09-21T23:14:11.411Z,1.95
2022-09-21T23:16:15.373Z,1.80
2022-09-21T23:18:18.801Z,1.88
2022-09-21T23:20:21.367Z,1.40
2022-09-21T23:22:24.258Z,1.80
2022-09-21T23:24:27.238Z,1.95
2022-09-21T23:26:31.957Z,1.77
2022-09-21T23:28:37.209Z,1.60
2022-09-21T23:30:39.806Z,1.60
2022-09-21T23:32:42.363Z,1.65
2022-09-21T23:34:45.061Z,1.80
2022-09-21T23:36:47.683Z,1.52
2022-09-21T23:38:50.896Z,1.70
2022-09-21T23:40:53.571Z,1.60
2022-09-21T23:42:56.436Z,1.50
2022-09-21T23:45:00.486Z,1.67
2022-09-21T23:47:03.085Z,1.70
2022-09-21T23:49:05.842Z,1.50
2022-09-21T23:51:08.500Z,1.50
2022-09-21T23:53:11.065Z,1.58
2022-09-21T23:55:13.826Z,1.80
2022-09-21T23:57:16.421Z,1.80
2022-09-21T23:59:19.127Z,1.63
